Latest Coastal Weather Observations for Aireys Inlet

IDV60701

Issued at 3:41 am EST Monday 24 April 2017 (issued every 10 minutes, with the page automatically refreshed every 10 minutes)

About coastal observations | Map of coastal stations | Coastal observations for VIC | Marine services | Other Formats
Station Details ID: 090180 Name: AIREYS INLET Lat: -38.46 Lon: 144.09 Height: 105.0 m
Data from the previous 72 hours. | See also: Recent months at Aireys Inlet
Date/Time
EST
Temp
°C
Wind Pressure Rain since
9am
mm
Weather Cloud Vis
km
Sea
Height
m
Swell
Dir  Spd
kts
Gust
kts
hPa Trend Height
m
Period
s
Dir
24/03:00am 14.3 W 2 3 - - 0.0 - - - - - - -
24/02:30am 14.3 WSW 2 3 - - - - - - - - - -
24/02:00am 14.1 WSW 3 4 - - - - - - - - - -
24/01:30am 14.2 W 3 4 - - - - - - - - - -
24/01:00am 14.3 WSW 3 4 - - - - - - - - - -
24/12:30am 14.3 W 3 5 - - - - - - - - - -
24/12:00am 14.6 WSW 4 5 - - - - - - - - - -
 
Date/Time
EST
Temp
°C
Wind Pressure Rain since
9am
mm
Weather Cloud Vis
km
Sea
Height
m
Swell
Dir  Spd
kts
Gust
kts
hPa Trend Height
m
Period
s
Dir
23/11:30pm 14.6 WNW 2 3 - - - - - - - - - -
23/11:00pm 14.6 W 2 3 - - - - - - - - - -
23/10:30pm 14.7 WSW 1 2 - - - - - - - - - -
23/10:00pm 14.6 WSW 3 5 - - - - - - - - - -
23/09:30pm 14.7 WSW 5 7 - - - - - - - - - -
23/09:00pm 14.7 SW 7 12 - - - - - - - - - -
23/08:30pm 14.8 SW 8 12 - - - - - - - - - -
23/08:00pm 14.8 SW 9 13 - - - - - - - - - -
23/07:30pm 14.7 SW 8 12 - - - - - - - - - -
23/07:00pm 14.6 SW 10 14 - - - - - - - - - -
23/06:30pm 14.6 SW 9 16 - - 1.4 - - - - - - -
23/06:00pm 14.5 SW 11 17 - - 1.4 - - - - - - -
23/05:30pm 14.5 SW 11 16 - - 1.4 - - - - - - -
23/05:00pm 14.7 SW 11 17 - - 1.4 - - - - - - -
23/04:30pm 14.9 SW 14 20 - - 1.4 - - - - - - -
23/04:00pm 15.2 SW 12 18 - - 1.4 - - - - - - -
23/03:30pm 15.3 SW 10 17 - - 1.4 - - - - - - -
23/03:00pm 15.5 SW 10 17 - - 1.4 - - - - - - -
23/02:30pm 15.6 SW 10 15 - - 1.4 - - - - - - -
23/02:00pm 15.9 SW 9 16 - - 1.4 - - - - - - -
23/01:30pm 16.3 SW 7 12 - - 1.4 - - - - - - -
23/01:00pm 16.0 SW 8 12 - - 1.4 - - - - - - -
23/12:30pm 15.9 SW 7 10 - - 1.0 - - - - - - -
23/12:00pm 16.1 SW 5 8 - - 0.2 Recent precip. - - - - - -
23/11:30am 16.0 SW 6 9 - - 0.0 - - - - - - -
23/11:00am 16.1 SW 7 11 - - 0.0 - - - - - - -
23/10:30am 16.1 SW 7 11 - - 0.0 - - - - - - -
23/10:00am 15.9 WSW 6 8 - - 0.0 - - - - - - -
23/09:30am 15.8 WSW 5 7 - - 0.0 - - - - - - -
23/09:00am 15.8 WSW 4 8 - - - - - - - - - -
23/08:30am 15.7 WSW 5 7 - - - - - - - - - -
23/08:00am 15.6 WSW 4 6 - - - - - - - - - -
23/07:30am 15.4 SW 6 8 - - - - - - - - - -
23/07:00am 15.5 SW 6 9 - - - - - - - - - -
23/06:30am 15.6 SW 8 12 - - - - - - - - - -
23/06:00am 15.6 SW 9 14 - - - Recent precip. - - - - - -
23/05:30am 15.8 SW 7 9 - - - - - - - - - -
23/05:00am 15.9 SW 7 13 - - - - - - - - - -
23/04:30am 16.1 WSW 6 9 - - - - - - - - - -
23/04:00am 16.1 SW 6 9 - - - - - - - - - -
23/03:30am 16.1 NW 4 6 - - - - - - - - - -
23/03:00am 16.1 W 2 3 - - - - - - - - - -
23/02:30am 16.2 W 3 4 - - - - - - - - - -
23/02:00am 16.4 SW 5 8 - - - - - - - - - -
23/01:30am 16.2 W 3 3 - - - - - - - - - -
23/01:00am 16.1 W 4 - - - - - - - - - - -
 
Date/Time
EST
Temp
°C
Wind Pressure Rain since
9am
mm
Weather Cloud Vis
km
Sea
Height
m
Swell
Dir  Spd
kts
Gust
kts
hPa Trend Height
m
Period
s
Dir
22/08:00am 16.1 NW 8 16 - - - - - - - - - -
22/07:30am 16.1 NW 10 13 - - - - - - - - - -
22/07:00am 16.0 NW 5 7 - - - - - - - - - -
22/06:30am 16.0 NNW 4 7 - - 4.2 - - - - - - -
22/06:00am 16.0 NNW 3 4 - - 4.2 - - - - - - -
22/05:30am 15.9 NNW 3 5 - - 4.2 - - - - - - -
22/05:00am 16.0 WNW 4 7 - - 4.2 - - - - - - -
22/04:30am 15.9 NW 5 8 - - 4.2 - - - - - - -
22/04:00am 15.9 NW 6 9 - - 4.2 - - - - - - -
22/03:30am 15.9 NW 4 9 - - 4.2 - - - - - - -
22/03:00am 15.9 NNW 5 7 - - 4.2 - - - - - - -
22/02:30am 15.9 NNW 4 6 - - 4.2 - - - - - - -
22/02:00am 16.0 N 4 5 - - 4.2 - - - - - - -
22/01:30am 15.9 NNW 5 7 - - 4.2 - - - - - - -
22/01:00am 16.0 N 4 6 - - 4.2 - - - - - - -
22/12:30am 16.1 NNW 6 9 - - 4.2 - - - - - - -
22/12:00am 16.2 NNW 5 8 - - 4.2 Recent precip. - - - - - -
 
Date/Time
EST
Temp
°C
Wind Pressure Rain since
9am
mm
Weather Cloud Vis
km
Sea
Height
m
Swell
Dir  Spd
kts
Gust
kts
hPa Trend Height
m
Period
s
Dir
21/11:30pm 16.5 NNW 4 5 - - 4.0 - - - - - - -
21/11:00pm 16.4 NW 4 6 - - 2.4 - - - - - - -
21/10:30pm 16.4 N 4 6 - - 2.2 - - - - - - -
21/10:00pm 16.4 N 5 7 - - 1.6 - - - - - - -
21/09:30pm 16.5 NNW 5 8 - - 0.8 - - - - - - -
21/09:00pm 17.3 NW 8 14 - - 0.2 - - - - - - -
21/08:30pm 17.2 NNW 5 7 - - 0.2 - - - - - - -
21/08:00pm 17.3 NW 6 11 - - 0.2 - - - - - - -
21/07:30pm 17.8 NW 5 7 - - 0.2 - - - - - - -
21/07:00pm 17.9 NNW 3 5 - - 0.2 - - - - - - -
21/06:30pm 18.0 N 3 4 - - 0.2 - - - - - - -
21/06:00pm 18.3 NW 3 4 - - 0.2 - - - - - - -
21/05:30pm 18.8 NW 3 5 - - 0.2 - - - - - - -
21/05:00pm 19.3 NNW 5 8 - - 0.2 - - - - - - -
21/04:30pm 20.1 NNW 6 9 - - 0.2 - - - - - - -
21/04:00pm 19.8 NW 6 9 - - 0.2 - - - - - - -
21/03:30pm 19.9 WNW 9 13 - - 0.2 - - - - - - -
21/03:00pm 20.0 WNW 10 14 - - 0.2 - - - - - - -
21/02:30pm 19.6 WNW 9 13 - - 0.2 - - - - - - -
21/02:00pm 19.9 NNW 7 12 - - 0.2 - - - - - - -
21/01:30pm 19.5 NW 11 18 - - 0.2 - - - - - - -
21/01:00pm 19.7 NW 8 13 - - 0.2 - - - - - - -
21/12:30pm 18.7 N 8 12 - - 0.0 - - - - - - -
21/12:00pm 17.5 N 7 11 - - 0.0 - - - - - - -
21/11:30am 16.9 NNE 8 12 - - 0.0 - - - - - - -
21/11:00am 16.5 NNE 8 13 - - 0.0 - - - - - - -
21/10:30am 16.3 NNE 7 11 - - 0.0 - - - - - - -
21/10:00am 15.9 NNE 6 10 - - 0.0 - - - - - - -
21/09:30am 15.6 NNE 5 9 - - 0.0 - - - - - - -
21/09:00am 15.5 NE 8 17 - - - - - - - - - -
21/08:30am 15.5 NE 9 16 - - - - - - - - - -
21/08:00am 15.5 ENE 10 16 - - - - - - - - - -
21/07:30am 15.4 NE 8 11 - - - - - - - - - -
21/07:00am 15.3 NE 7 11 - - - - - - - - - -
21/06:30am 15.3 NE 6 11 - - - - - - - - - -
21/06:00am 15.5 NE 4 8 - - - - - - - - - -
21/05:30am 15.4 ENE 2 4 - - - - - - - - - -
21/05:00am 15.4 ENE 2 3 - - - - - - - - - -
21/04:30am 15.4 NNE 2 3 - - - - - - - - - -
21/04:00am 15.4 NNE 3 4 - - - - - - - - - -

Other Formats:

Comma delimited format used in spreadsheet applications
http://www.bom.gov.au/fwo/IDV60701/IDV60701.94846.axf

JavaScript Object Notation format (JSON) in row-major order
http://www.bom.gov.au/fwo/IDV60701/IDV60701.94846.json